Terminal Aerodrome Forecast
Issued by NWS Hastings, NE

Home | Current Version | Previous Version | Text Only | Print | Product List | Glossary On
Versions: 1 2 3 4 5 6 7 8 9 10 11 12 13 14 15 16 17 18 19 20 21 22 23 24 25 26 27 28 29 30 31 32 33 34 35 36 37
000
FTUS43 KGID 010553
TAFGRI
TAF
KGRI 010553Z 0106/0206 01016KT 1SM -SN OVC004
     FM010800 35022G31KT 1SM -SN BR OVC004
     FM011500 34024G34KT 1SM -SN BR SCT004 OVC009
     FM012200 34015G25KT P6SM BKN015
     FM020100 33011KT P6SM SCT015=

USA.gov is the U.S. government's official web portal to all federal, state and local government web resources and services.